Main page
METAR-TAF:

METAR-TAF

Airports :

Kerrville Municipal Airport

Kerrville, Texas, United States

latitude: 29-58N, longitude: 099-05W, elevation: 1617 ft

Current weather observation

The report was made 38 minutes ago, at 18:35 UTC
Calm wind
Temperature 84°F
Humidity 66%
Pressure 30.01 in. Hg
Visibility: 10 miles
Scattered clouds at a height of 5500 ft
Broken clouds at a height of 7000 ft
Scattered clouds at a height of 8000 ft

METAR: KERV 121835Z AUTO 00000KT 10SM SCT055 BKN070 SCT080 29/22 A3001 RMK AO2 T02920219

Time: 14:13 (19:13 UTC)


TAF: missing

Weather observations and forecasts of more than 4000 airports (METAR and TAF reports).

The available stations are represented by yellow and red dots on the map.

Hover mouse over dot to see the name of the station.

Then click to see weather observations and forecasts.

To change the map : click on the green buttons with a black cross to zoom in, on the green button with a dash to zoom out, or on the green arrows for adjacent maps.


METAR-TAF: